East Taunton, MA

5:41 AM EST on December 10, 2016 (GMT -0500)
Taunton Municipal | | Change Station

Elev 43 ft 41.88 °N, 71.02 °W | Updated 49 minutes ago

Clear
Clear
21 °F
Feels Like 16 °F
N
4
Wind Variable Wind from West

Today
High -- | Low -- °F
--% Chance of Precip.
Yesterday
High -- | Low -- °F
Precip. -- in
Pressure 30.25 in
Visibility 10.0 miles
Clouds Clear
Windchill 16 °F
Dew Point 6 °F
Humidity 53%
Rainfall 0.00 in
Snow Depth Not available.
7:01 AM 4:13 PM
Waxing Gibbous, 82% visible
METAR KTAN 100952Z AUTO 27003KT 10SM CLR M06/M14 A3024 RMK AO2 SLP241 T10611144
Pressure 30.25 in
Visibility 10.0 miles
Clouds Clear
Windchill 16 °F
Dew Point 6 °F
Humidity 53%
Rainfall 0.00 in
Snow Depth Not available.
7:01 AM 4:13 PM
Waxing Gibbous, 82% visible
METAR KTAN 100952Z AUTO 27003KT 10SM CLR M06/M14 A3024 RMK AO2 SLP241 T10611144

10-Day Weather Forecast

Almanac

Astronomy

Dec. 10, 2016 Rise Set
Actual Time
Civil Twilight
Nautical Twilight
Astronomical Twilight
Moon
Length of Visible Light
Length of Day
Tomorrow will be .
, % of the Moon is Illuminated

Today's Extremes

State Highs State Lows

Community

WunderPhotos

Upload Photos

1,956,536 photos uploaded!

WunderBlog® & News

Nearby

Air Quality

  Air Quality AQ Index Pollutant
Not available.

Snow Depth

Station Depth Elevation

Earthquake Activity

City Distance Mag. Time & Date
Minimum magnitude displayed is 2.5.

Coastal Water Temperatures

Place Temperature

Stations

Nearby Weather Stations

Station Location Temp. Windchill Dew Point Humidity Wind Precip. Elev Updated Type
                   

Watches & Warnings

There are currently no watches in effect.